sensor_id;sensor_type;location;lat;lon;timestamp;P1;durP1;ratioP1;P2;durP2;ratioP2
30635;SDS011;17400;52.392;9.750;2023-05-10T00:01:18;6.47;;;3.22;;
30635;SDS011;17400;52.392;9.750;2023-05-10T00:03:46;5.07;;;2.90;;
30635;SDS011;17400;52.392;9.750;2023-05-10T00:06:15;4.00;;;2.63;;
30635;SDS011;17400;52.392;9.750;2023-05-10T00:08:43;6.50;;;3.35;;
30635;SDS011;17400;52.392;9.750;2023-05-10T00:11:12;5.68;;;3.55;;
30635;SDS011;17400;52.392;9.750;2023-05-10T00:13:40;5.80;;;3.85;;
30635;SDS011;17400;52.392;9.750;2023-05-10T00:16:07;5.57;;;3.55;;
30635;SDS011;17400;52.392;9.750;2023-05-10T00:18:35;6.32;;;3.15;;
30635;SDS011;17400;52.392;9.750;2023-05-10T00:21:03;7.22;;;3.35;;
30635;SDS011;17400;52.392;9.750;2023-05-10T00:23:33;6.70;;;3.38;;
30635;SDS011;17400;52.392;9.750;2023-05-10T00:26:00;6.55;;;3.55;;
30635;SDS011;17400;52.392;9.750;2023-05-10T00:28:28;5.65;;;2.85;;
30635;SDS011;17400;52.392;9.750;2023-05-10T00:30:56;5.25;;;3.10;;
30635;SDS011;17400;52.392;9.750;2023-05-10T00:33:24;6.20;;;3.63;;
30635;SDS011;17400;52.392;9.750;2023-05-10T00:35:52;4.32;;;2.92;;
30635;SDS011;17400;52.392;9.750;2023-05-10T00:38:19;5.85;;;3.58;;
30635;SDS011;17400;52.392;9.750;2023-05-10T00:40:48;4.00;;;2.55;;
30635;SDS011;17400;52.392;9.750;2023-05-10T00:43:16;5.40;;;3.10;;
30635;SDS011;17400;52.392;9.750;2023-05-10T00:45:44;4.72;;;3.00;;
30635;SDS011;17400;52.392;9.750;2023-05-10T00:48:14;3.90;;;2.65;;
30635;SDS011;17400;52.392;9.750;2023-05-10T00:50:42;5.30;;;3.58;;
30635;SDS011;17400;52.392;9.750;2023-05-10T00:53:10;4.75;;;3.00;;
30635;SDS011;17400;52.392;9.750;2023-05-10T00:55:38;7.45;;;3.65;;
30635;SDS011;17400;52.392;9.750;2023-05-10T00:58:07;4.40;;;2.88;;
30635;SDS011;17400;52.392;9.750;2023-05-10T01:00:35;6.18;;;3.10;;
30635;SDS011;17400;52.392;9.750;2023-05-10T01:03:03;6.72;;;3.40;;
30635;SDS011;17400;52.392;9.750;2023-05-10T01:05:31;4.28;;;3.25;;
30635;SDS011;17400;52.392;9.750;2023-05-10T01:07:59;3.72;;;2.90;;
30635;SDS011;17400;52.392;9.750;2023-05-10T01:10:27;5.90;;;3.72;;
30635;SDS011;17400;52.392;9.750;2023-05-10T01:12:54;4.95;;;3.13;;
30635;SDS011;17400;52.392;9.750;2023-05-10T01:15:24;9.13;;;3.60;;
30635;SDS011;17400;52.392;9.750;2023-05-10T01:17:52;6.28;;;3.58;;
30635;SDS011;17400;52.392;9.750;2023-05-10T01:20:23;5.30;;;3.08;;
30635;SDS011;17400;52.392;9.750;2023-05-10T01:22:59;5.32;;;3.53;;
30635;SDS011;17400;52.392;9.750;2023-05-10T01:25:43;5.40;;;3.50;;
30635;SDS011;17400;52.392;9.750;2023-05-10T01:28:39;4.95;;;3.63;;
30635;SDS011;17400;52.392;9.750;2023-05-10T01:31:23;5.85;;;3.65;;
30635;SDS011;17400;52.392;9.750;2023-05-10T01:34:00;5.10;;;3.35;;
30635;SDS011;17400;52.392;9.750;2023-05-10T01:36:35;7.05;;;3.85;;
30635;SDS011;17400;52.392;9.750;2023-05-10T01:39:11;5.55;;;3.47;;
30635;SDS011;17400;52.392;9.750;2023-05-10T01:41:46;4.72;;;2.92;;
30635;SDS011;17400;52.392;9.750;2023-05-10T01:44:20;7.15;;;4.15;;
30635;SDS011;17400;52.392;9.750;2023-05-10T01:46:57;4.63;;;3.55;;
30635;SDS011;17400;52.392;9.750;2023-05-10T01:49:34;4.45;;;3.53;;
30635;SDS011;17400;52.392;9.750;2023-05-10T01:52:08;5.72;;;4.07;;
30635;SDS011;17400;52.392;9.750;2023-05-10T01:54:38;4.93;;;3.28;;
30635;SDS011;17400;52.392;9.750;2023-05-10T01:57:11;6.40;;;3.35;;
30635;SDS011;17400;52.392;9.750;2023-05-10T01:59:41;6.18;;;3.58;;
30635;SDS011;17400;52.392;9.750;2023-05-10T02:02:14;6.45;;;3.75;;
30635;SDS011;17400;52.392;9.750;2023-05-10T02:04:45;4.68;;;3.80;;
30635;SDS011;17400;52.392;9.750;2023-05-10T02:07:14;4.90;;;3.63;;
30635;SDS011;17400;52.392;9.750;2023-05-10T02:09:44;7.88;;;4.43;;
30635;SDS011;17400;52.392;9.750;2023-05-10T02:12:14;6.38;;;4.35;;
30635;SDS011;17400;52.392;9.750;2023-05-10T02:14:43;4.63;;;3.75;;
30635;SDS011;17400;52.392;9.750;2023-05-10T02:17:12;5.57;;;4.30;;
30635;SDS011;17400;52.392;9.750;2023-05-10T02:19:41;5.43;;;3.83;;
30635;SDS011;17400;52.392;9.750;2023-05-10T02:22:12;5.05;;;3.90;;
30635;SDS011;17400;52.392;9.750;2023-05-10T02:24:42;4.88;;;3.50;;
30635;SDS011;17400;52.392;9.750;2023-05-10T02:27:12;5.75;;;3.90;;
30635;SDS011;17400;52.392;9.750;2023-05-10T02:29:42;6.43;;;3.85;;
30635;SDS011;17400;52.392;9.750;2023-05-10T02:32:11;5.18;;;3.78;;
30635;SDS011;17400;52.392;9.750;2023-05-10T02:34:40;4.95;;;3.75;;
30635;SDS011;17400;52.392;9.750;2023-05-10T02:37:12;5.75;;;4.32;;
30635;SDS011;17400;52.392;9.750;2023-05-10T02:39:42;6.35;;;3.92;;
30635;SDS011;17400;52.392;9.750;2023-05-10T02:42:12;5.18;;;3.80;;
30635;SDS011;17400;52.392;9.750;2023-05-10T02:44:43;9.50;;;5.13;;
30635;SDS011;17400;52.392;9.750;2023-05-10T02:47:14;5.35;;;4.05;;
30635;SDS011;17400;52.392;9.750;2023-05-10T02:49:42;5.97;;;3.95;;
30635;SDS011;17400;52.392;9.750;2023-05-10T02:52:10;6.35;;;3.85;;
30635;SDS011;17400;52.392;9.750;2023-05-10T02:54:43;7.22;;;4.95;;
30635;SDS011;17400;52.392;9.750;2023-05-10T02:57:17;8.00;;;4.88;;
30635;SDS011;17400;52.392;9.750;2023-05-10T02:59:49;9.98;;;4.57;;
30635;SDS011;17400;52.392;9.750;2023-05-10T03:02:17;6.50;;;4.10;;
30635;SDS011;17400;52.392;9.750;2023-05-10T03:04:46;9.48;;;5.47;;
30635;SDS011;17400;52.392;9.750;2023-05-10T03:07:15;8.10;;;5.13;;
30635;SDS011;17400;52.392;9.750;2023-05-10T03:09:45;9.50;;;4.97;;
30635;SDS011;17400;52.392;9.750;2023-05-10T03:12:14;9.00;;;4.50;;
30635;SDS011;17400;52.392;9.750;2023-05-10T03:14:49;8.65;;;5.53;;
30635;SDS011;17400;52.392;9.750;2023-05-10T03:17:22;7.50;;;4.15;;
30635;SDS011;17400;52.392;9.750;2023-05-10T03:19:53;9.13;;;4.82;;
30635;SDS011;17400;52.392;9.750;2023-05-10T03:22:25;6.97;;;4.63;;
30635;SDS011;17400;52.392;9.750;2023-05-10T03:24:57;7.15;;;4.53;;
30635;SDS011;17400;52.392;9.750;2023-05-10T03:27:32;5.90;;;4.57;;
30635;SDS011;17400;52.392;9.750;2023-05-10T03:30:01;5.88;;;4.38;;
30635;SDS011;17400;52.392;9.750;2023-05-10T03:32:29;8.52;;;4.55;;
30635;SDS011;17400;52.392;9.750;2023-05-10T03:34:58;5.95;;;4.72;;
30635;SDS011;17400;52.392;9.750;2023-05-10T03:37:27;8.30;;;4.80;;
30635;SDS011;17400;52.392;9.750;2023-05-10T03:39:54;7.28;;;4.82;;
30635;SDS011;17400;52.392;9.750;2023-05-10T03:42:22;6.38;;;4.47;;
30635;SDS011;17400;52.392;9.750;2023-05-10T03:44:50;6.35;;;4.45;;
30635;SDS011;17400;52.392;9.750;2023-05-10T03:47:18;8.00;;;5.55;;
30635;SDS011;17400;52.392;9.750;2023-05-10T03:49:46;8.85;;;4.50;;
30635;SDS011;17400;52.392;9.750;2023-05-10T03:52:14;9.55;;;4.80;;
30635;SDS011;17400;52.392;9.750;2023-05-10T03:54:43;7.10;;;5.03;;
30635;SDS011;17400;52.392;9.750;2023-05-10T03:57:10;8.18;;;6.10;;
30635;SDS011;17400;52.392;9.750;2023-05-10T03:59:38;8.25;;;5.40;;
30635;SDS011;17400;52.392;9.750;2023-05-10T04:02:06;10.27;;;6.47;;
30635;SDS011;17400;52.392;9.750;2023-05-10T04:04:34;9.27;;;5.55;;
30635;SDS011;17400;52.392;9.750;2023-05-10T04:07:02;8.57;;;5.30;;
30635;SDS011;17400;52.392;9.750;2023-05-10T04:09:30;6.47;;;5.28;;
30635;SDS011;17400;52.392;9.750;2023-05-10T04:12:00;10.75;;;5.82;;
30635;SDS011;17400;52.392;9.750;2023-05-10T04:14:28;9.15;;;5.78;;
30635;SDS011;17400;52.392;9.750;2023-05-10T04:16:56;9.15;;;5.40;;
30635;SDS011;17400;52.392;9.750;2023-05-10T04:19:24;8.00;;;5.55;;
30635;SDS011;17400;52.392;9.750;2023-05-10T04:21:51;10.48;;;6.35;;
30635;SDS011;17400;52.392;9.750;2023-05-10T04:24:20;16.13;;;6.32;;
30635;SDS011;17400;52.392;9.750;2023-05-10T04:26:47;8.23;;;5.55;;
30635;SDS011;17400;52.392;9.750;2023-05-10T04:29:16;9.65;;;6.28;;
30635;SDS011;17400;52.392;9.750;2023-05-10T04:31:44;10.40;;;6.50;;
30635;SDS011;17400;52.392;9.750;2023-05-10T04:34:12;7.70;;;5.22;;
30635;SDS011;17400;52.392;9.750;2023-05-10T04:36:39;9.98;;;6.10;;
30635;SDS011;17400;52.392;9.750;2023-05-10T04:39:07;9.43;;;6.32;;
30635;SDS011;17400;52.392;9.750;2023-05-10T04:41:37;11.65;;;6.63;;
30635;SDS011;17400;52.392;9.750;2023-05-10T04:44:05;11.25;;;6.80;;
30635;SDS011;17400;52.392;9.750;2023-05-10T04:46:34;9.18;;;6.07;;
30635;SDS011;17400;52.392;9.750;2023-05-10T04:49:01;10.27;;;6.25;;
30635;SDS011;17400;52.392;9.750;2023-05-10T04:51:29;7.35;;;5.47;;
30635;SDS011;17400;52.392;9.750;2023-05-10T04:53:58;7.18;;;5.72;;
30635;SDS011;17400;52.392;9.750;2023-05-10T04:56:31;9.07;;;5.95;;
30635;SDS011;17400;52.392;9.750;2023-05-10T04:58:59;8.43;;;5.85;;
30635;SDS011;17400;52.392;9.750;2023-05-10T05:01:27;11.75;;;5.93;;
30635;SDS011;17400;52.392;9.750;2023-05-10T05:03:56;9.20;;;6.63;;
30635;SDS011;17400;52.392;9.750;2023-05-10T05:06:24;6.57;;;4.93;;
30635;SDS011;17400;52.392;9.750;2023-05-10T05:08:53;9.98;;;5.63;;
30635;SDS011;17400;52.392;9.750;2023-05-10T05:11:21;11.30;;;6.80;;
30635;SDS011;17400;52.392;9.750;2023-05-10T05:13:48;7.45;;;5.53;;
30635;SDS011;17400;52.392;9.750;2023-05-10T05:16:16;9.38;;;5.72;;
30635;SDS011;17400;52.392;9.750;2023-05-10T05:18:44;9.32;;;5.63;;
30635;SDS011;17400;52.392;9.750;2023-05-10T05:21:16;10.10;;;6.30;;
30635;SDS011;17400;52.392;9.750;2023-05-10T05:23:45;7.45;;;5.43;;
30635;SDS011;17400;52.392;9.750;2023-05-10T05:26:13;8.50;;;5.38;;
30635;SDS011;17400;52.392;9.750;2023-05-10T05:28:41;10.05;;;6.88;;
30635;SDS011;17400;52.392;9.750;2023-05-10T05:31:09;10.15;;;6.03;;
30635;SDS011;17400;52.392;9.750;2023-05-10T05:33:37;10.40;;;6.88;;
30635;SDS011;17400;52.392;9.750;2023-05-10T05:36:05;11.50;;;6.45;;
30635;SDS011;17400;52.392;9.750;2023-05-10T05:38:35;9.63;;;5.80;;
30635;SDS011;17400;52.392;9.750;2023-05-10T05:41:02;8.73;;;5.65;;
30635;SDS011;17400;52.392;9.750;2023-05-10T05:43:30;11.15;;;5.97;;
30635;SDS011;17400;52.392;9.750;2023-05-10T05:45:58;8.40;;;6.38;;
30635;SDS011;17400;52.392;9.750;2023-05-10T05:48:25;9.63;;;6.50;;
30635;SDS011;17400;52.392;9.750;2023-05-10T05:50:54;9.00;;;5.97;;
30635;SDS011;17400;52.392;9.750;2023-05-10T05:53:22;10.57;;;6.15;;
30635;SDS011;17400;52.392;9.750;2023-05-10T05:55:54;9.93;;;6.35;;
30635;SDS011;17400;52.392;9.750;2023-05-10T05:58:23;13.77;;;5.75;;
30635;SDS011;17400;52.392;9.750;2023-05-10T06:00:51;8.80;;;5.47;;
30635;SDS011;17400;52.392;9.750;2023-05-10T06:03:19;9.55;;;6.10;;
30635;SDS011;17400;52.392;9.750;2023-05-10T06:05:47;7.05;;;5.00;;
30635;SDS011;17400;52.392;9.750;2023-05-10T06:08:15;8.00;;;5.20;;
30635;SDS011;17400;52.392;9.750;2023-05-10T06:10:44;6.82;;;4.55;;
30635;SDS011;17400;52.392;9.750;2023-05-10T06:13:13;10.80;;;5.22;;
30635;SDS011;17400;52.392;9.750;2023-05-10T06:15:43;7.60;;;4.75;;
30635;SDS011;17400;52.392;9.750;2023-05-10T06:18:10;8.95;;;5.25;;
30635;SDS011;17400;52.392;9.750;2023-05-10T06:20:38;8.40;;;5.57;;
30635;SDS011;17400;52.392;9.750;2023-05-10T06:23:06;7.57;;;5.10;;
30635;SDS011;17400;52.392;9.750;2023-05-10T06:25:34;10.63;;;5.50;;
30635;SDS011;17400;52.392;9.750;2023-05-10T06:28:01;8.18;;;5.10;;
30635;SDS011;17400;52.392;9.750;2023-05-10T06:30:30;6.97;;;4.55;;
30635;SDS011;17400;52.392;9.750;2023-05-10T06:32:58;8.15;;;5.70;;
30635;SDS011;17400;52.392;9.750;2023-05-10T06:35:26;7.13;;;4.63;;
30635;SDS011;17400;52.392;9.750;2023-05-10T06:37:54;8.32;;;4.28;;
30635;SDS011;17400;52.392;9.750;2023-05-10T06:40:22;6.38;;;4.50;;
30635;SDS011;17400;52.392;9.750;2023-05-10T06:42:50;7.72;;;4.80;;
30635;SDS011;17400;52.392;9.750;2023-05-10T06:45:19;9.88;;;5.72;;
30635;SDS011;17400;52.392;9.750;2023-05-10T06:47:48;7.43;;;5.95;;
30635;SDS011;17400;52.392;9.750;2023-05-10T06:50:16;10.30;;;5.07;;
30635;SDS011;17400;52.392;9.750;2023-05-10T06:52:52;8.52;;;6.28;;
30635;SDS011;17400;52.392;9.750;2023-05-10T06:55:20;9.82;;;5.25;;
30635;SDS011;17400;52.392;9.750;2023-05-10T06:57:48;8.40;;;5.57;;
30635;SDS011;17400;52.392;9.750;2023-05-10T07:00:17;8.80;;;5.93;;
30635;SDS011;17400;52.392;9.750;2023-05-10T07:02:46;9.43;;;6.20;;
30635;SDS011;17400;52.392;9.750;2023-05-10T07:05:15;10.75;;;5.80;;
30635;SDS011;17400;52.392;9.750;2023-05-10T07:07:44;7.97;;;5.60;;
30635;SDS011;17400;52.392;9.750;2023-05-10T07:10:12;7.15;;;5.50;;
30635;SDS011;17400;52.392;9.750;2023-05-10T07:12:39;10.00;;;5.78;;
30635;SDS011;17400;52.392;9.750;2023-05-10T07:15:08;7.75;;;5.68;;
30635;SDS011;17400;52.392;9.750;2023-05-10T07:17:36;8.05;;;5.20;;
30635;SDS011;17400;52.392;9.750;2023-05-10T07:20:04;11.95;;;5.20;;
30635;SDS011;17400;52.392;9.750;2023-05-10T07:22:35;7.65;;;4.70;;
30635;SDS011;17400;52.392;9.750;2023-05-10T07:25:03;10.70;;;6.43;;
30635;SDS011;17400;52.392;9.750;2023-05-10T07:27:32;8.68;;;5.82;;
30635;SDS011;17400;52.392;9.750;2023-05-10T07:29:59;12.13;;;7.40;;
30635;SDS011;17400;52.392;9.750;2023-05-10T07:32:27;8.52;;;5.03;;
30635;SDS011;17400;52.392;9.750;2023-05-10T07:34:55;7.22;;;5.07;;
30635;SDS011;17400;52.392;9.750;2023-05-10T07:37:23;7.82;;;5.35;;
30635;SDS011;17400;52.392;9.750;2023-05-10T07:39:52;10.13;;;4.88;;
30635;SDS011;17400;52.392;9.750;2023-05-10T07:42:20;7.88;;;5.57;;
30635;SDS011;17400;52.392;9.750;2023-05-10T07:44:48;7.18;;;5.15;;
30635;SDS011;17400;52.392;9.750;2023-05-10T07:47:21;9.60;;;5.75;;
30635;SDS011;17400;52.392;9.750;2023-05-10T07:49:49;12.43;;;5.03;;
30635;SDS011;17400;52.392;9.750;2023-05-10T07:52:17;6.93;;;4.10;;
30635;SDS011;17400;52.392;9.750;2023-05-10T07:54:48;8.13;;;5.32;;
30635;SDS011;17400;52.392;9.750;2023-05-10T07:57:19;7.35;;;4.82;;
30635;SDS011;17400;52.392;9.750;2023-05-10T07:59:47;8.07;;;4.85;;
30635;SDS011;17400;52.392;9.750;2023-05-10T08:02:15;6.03;;;4.22;;
30635;SDS011;17400;52.392;9.750;2023-05-10T08:04:43;5.82;;;3.42;;
30635;SDS011;17400;52.392;9.750;2023-05-10T08:07:11;6.10;;;3.85;;
30635;SDS011;17400;52.392;9.750;2023-05-10T08:09:38;5.13;;;3.45;;
30635;SDS011;17400;52.392;9.750;2023-05-10T08:12:08;4.97;;;3.72;;
30635;SDS011;17400;52.392;9.750;2023-05-10T08:14:37;8.40;;;4.35;;
30635;SDS011;17400;52.392;9.750;2023-05-10T08:17:05;8.32;;;4.07;;
30635;SDS011;17400;52.392;9.750;2023-05-10T08:19:32;5.47;;;3.25;;
30635;SDS011;17400;52.392;9.750;2023-05-10T08:22:01;3.95;;;2.60;;
30635;SDS011;17400;52.392;9.750;2023-05-10T08:24:29;4.43;;;2.83;;
30635;SDS011;17400;52.392;9.750;2023-05-10T08:26:57;4.93;;;2.83;;
30635;SDS011;17400;52.392;9.750;2023-05-10T08:29:25;3.03;;;2.35;;
30635;SDS011;17400;52.392;9.750;2023-05-10T08:31:59;4.28;;;1.77;;
30635;SDS011;17400;52.392;9.750;2023-05-10T08:34:27;3.08;;;2.22;;
30635;SDS011;17400;52.392;9.750;2023-05-10T08:36:55;5.65;;;3.80;;
30635;SDS011;17400;52.392;9.750;2023-05-10T08:39:23;2.40;;;1.60;;
30635;SDS011;17400;52.392;9.750;2023-05-10T08:41:57;2.42;;;1.65;;
30635;SDS011;17400;52.392;9.750;2023-05-10T08:44:36;2.72;;;1.75;;
30635;SDS011;17400;52.392;9.750;2023-05-10T08:47:05;3.60;;;1.52;;
30635;SDS011;17400;52.392;9.750;2023-05-10T08:49:34;2.75;;;1.70;;
30635;SDS011;17400;52.392;9.750;2023-05-10T08:52:03;2.80;;;1.52;;
30635;SDS011;17400;52.392;9.750;2023-05-10T08:54:32;1.42;;;1.10;;
30635;SDS011;17400;52.392;9.750;2023-05-10T08:57:00;1.70;;;1.13;;
30635;SDS011;17400;52.392;9.750;2023-05-10T08:59:28;2.05;;;1.30;;
30635;SDS011;17400;52.392;9.750;2023-05-10T09:01:57;2.22;;;1.33;;
30635;SDS011;17400;52.392;9.750;2023-05-10T09:04:27;2.47;;;1.30;;
30635;SDS011;17400;52.392;9.750;2023-05-10T09:06:57;1.85;;;1.20;;
30635;SDS011;17400;52.392;9.750;2023-05-10T09:09:25;2.45;;;1.55;;
30635;SDS011;17400;52.392;9.750;2023-05-10T09:11:53;2.97;;;1.77;;
30635;SDS011;17400;52.392;9.750;2023-05-10T09:14:21;2.55;;;1.83;;
30635;SDS011;17400;52.392;9.750;2023-05-10T09:16:51;7.18;;;1.70;;
30635;SDS011;17400;52.392;9.750;2023-05-10T09:19:20;3.03;;;1.95;;
30635;SDS011;17400;52.392;9.750;2023-05-10T09:21:49;6.93;;;2.28;;
30635;SDS011;17400;52.392;9.750;2023-05-10T09:24:17;2.53;;;1.48;;
30635;SDS011;17400;52.392;9.750;2023-05-10T09:26:48;3.67;;;2.13;;
30635;SDS011;17400;52.392;9.750;2023-05-10T09:29:15;3.88;;;1.88;;
30635;SDS011;17400;52.392;9.750;2023-05-10T09:31:44;3.80;;;2.30;;
30635;SDS011;17400;52.392;9.750;2023-05-10T09:34:17;4.20;;;2.50;;
30635;SDS011;17400;52.392;9.750;2023-05-10T09:36:53;3.85;;;2.17;;
30635;SDS011;17400;52.392;9.750;2023-05-10T09:39:29;3.30;;;2.13;;
30635;SDS011;17400;52.392;9.750;2023-05-10T09:41:58;3.45;;;2.17;;
30635;SDS011;17400;52.392;9.750;2023-05-10T09:44:27;3.50;;;2.55;;
30635;SDS011;17400;52.392;9.750;2023-05-10T09:46:54;3.08;;;2.28;;
30635;SDS011;17400;52.392;9.750;2023-05-10T09:49:22;6.70;;;2.25;;
30635;SDS011;17400;52.392;9.750;2023-05-10T09:52:00;2.40;;;1.73;;
30635;SDS011;17400;52.392;9.750;2023-05-10T09:54:30;3.80;;;2.30;;
30635;SDS011;17400;52.392;9.750;2023-05-10T09:56:58;3.22;;;2.40;;
30635;SDS011;17400;52.392;9.750;2023-05-10T09:59:26;2.75;;;1.75;;
30635;SDS011;17400;52.392;9.750;2023-05-10T10:01:55;3.00;;;1.85;;
30635;SDS011;17400;52.392;9.750;2023-05-10T10:04:23;2.63;;;1.95;;
30635;SDS011;17400;52.392;9.750;2023-05-10T10:07:03;3.22;;;2.40;;
30635;SDS011;17400;52.392;9.750;2023-05-10T10:09:33;4.10;;;2.10;;
30635;SDS011;17400;52.392;9.750;2023-05-10T10:12:02;3.42;;;2.28;;
30635;SDS011;17400;52.392;9.750;2023-05-10T10:14:30;3.95;;;2.40;;
30635;SDS011;17400;52.392;9.750;2023-05-10T10:16:59;2.92;;;1.95;;
30635;SDS011;17400;52.392;9.750;2023-05-10T10:19:32;3.05;;;2.03;;
30635;SDS011;17400;52.392;9.750;2023-05-10T10:22:02;3.50;;;2.20;;
30635;SDS011;17400;52.392;9.750;2023-05-10T10:24:30;3.28;;;2.15;;
30635;SDS011;17400;52.392;9.750;2023-05-10T10:26:59;2.78;;;2.17;;
30635;SDS011;17400;52.392;9.750;2023-05-10T10:29:36;4.00;;;2.33;;
30635;SDS011;17400;52.392;9.750;2023-05-10T10:32:09;4.80;;;2.70;;
30635;SDS011;17400;52.392;9.750;2023-05-10T10:34:46;4.72;;;3.40;;
30635;SDS011;17400;52.392;9.750;2023-05-10T10:37:15;5.07;;;3.33;;
30635;SDS011;17400;52.392;9.750;2023-05-10T10:39:43;5.78;;;2.63;;
30635;SDS011;17400;52.392;9.750;2023-05-10T10:42:11;5.25;;;2.72;;
30635;SDS011;17400;52.392;9.750;2023-05-10T10:44:39;4.22;;;2.92;;
30635;SDS011;17400;52.392;9.750;2023-05-10T10:47:10;3.85;;;2.63;;
30635;SDS011;17400;52.392;9.750;2023-05-10T10:50:05;4.03;;;2.55;;
30635;SDS011;17400;52.392;9.750;2023-05-10T10:52:35;5.25;;;3.42;;
30635;SDS011;17400;52.392;9.750;2023-05-10T10:55:04;5.35;;;2.83;;
30635;SDS011;17400;52.392;9.750;2023-05-10T10:57:42;6.97;;;2.90;;
30635;SDS011;17400;52.392;9.750;2023-05-10T11:00:18;3.97;;;2.22;;
30635;SDS011;17400;52.392;9.750;2023-05-10T11:02:48;5.53;;;2.58;;
30635;SDS011;17400;52.392;9.750;2023-05-10T11:08:10;3.70;;;2.50;;
30635;SDS011;17400;52.392;9.750;2023-05-10T11:10:49;3.67;;;2.22;;
30635;SDS011;17400;52.392;9.750;2023-05-10T11:13:26;4.35;;;2.10;;
30635;SDS011;17400;52.392;9.750;2023-05-10T11:15:56;4.60;;;2.58;;
30635;SDS011;17400;52.392;9.750;2023-05-10T11:18:25;4.68;;;2.53;;
30635;SDS011;17400;52.392;9.750;2023-05-10T11:20:56;4.38;;;2.92;;
30635;SDS011;17400;52.392;9.750;2023-05-10T11:23:30;7.05;;;3.05;;
30635;SDS011;17400;52.392;9.750;2023-05-10T11:25:59;3.28;;;1.73;;
30635;SDS011;17400;52.392;9.750;2023-05-10T11:28:28;3.65;;;2.67;;
30635;SDS011;17400;52.392;9.750;2023-05-10T11:30:55;5.05;;;2.67;;
30635;SDS011;17400;52.392;9.750;2023-05-10T11:33:24;3.80;;;2.38;;
30635;SDS011;17400;52.392;9.750;2023-05-10T11:35:51;8.40;;;5.45;;
30635;SDS011;17400;52.392;9.750;2023-05-10T11:38:19;5.22;;;3.40;;
30635;SDS011;17400;52.392;9.750;2023-05-10T11:40:50;4.57;;;2.45;;
30635;SDS011;17400;52.392;9.750;2023-05-10T11:43:19;4.15;;;2.70;;
30635;SDS011;17400;52.392;9.750;2023-05-10T11:45:51;5.85;;;3.92;;
30635;SDS011;17400;52.392;9.750;2023-05-10T11:48:19;4.28;;;2.92;;
30635;SDS011;17400;52.392;9.750;2023-05-10T11:50:50;6.30;;;2.72;;
30635;SDS011;17400;52.392;9.750;2023-05-10T11:53:19;6.53;;;2.60;;
30635;SDS011;17400;52.392;9.750;2023-05-10T11:55:50;6.00;;;2.88;;
30635;SDS011;17400;52.392;9.750;2023-05-10T11:58:18;5.22;;;2.80;;
30635;SDS011;17400;52.392;9.750;2023-05-10T12:00:47;6.70;;;2.85;;
30635;SDS011;17400;52.392;9.750;2023-05-10T12:03:15;3.90;;;2.28;;
30635;SDS011;17400;52.392;9.750;2023-05-10T12:05:44;4.82;;;3.03;;
30635;SDS011;17400;52.392;9.750;2023-05-10T12:08:12;4.47;;;2.22;;
30635;SDS011;17400;52.392;9.750;2023-05-10T12:10:40;5.03;;;3.00;;
30635;SDS011;17400;52.392;9.750;2023-05-10T12:13:11;6.32;;;2.85;;
30635;SDS011;17400;52.392;9.750;2023-05-10T12:15:41;3.17;;;2.50;;
30635;SDS011;17400;52.392;9.750;2023-05-10T12:18:10;5.30;;;2.88;;
30635;SDS011;17400;52.392;9.750;2023-05-10T12:20:38;5.63;;;2.75;;
30635;SDS011;17400;52.392;9.750;2023-05-10T12:23:07;4.72;;;2.50;;
30635;SDS011;17400;52.392;9.750;2023-05-10T12:25:36;6.43;;;3.65;;
30635;SDS011;17400;52.392;9.750;2023-05-10T12:28:05;4.22;;;2.83;;
30635;SDS011;17400;52.392;9.750;2023-05-10T12:30:36;5.13;;;2.88;;
30635;SDS011;17400;52.392;9.750;2023-05-10T12:33:09;4.20;;;2.85;;
30635;SDS011;17400;52.392;9.750;2023-05-10T12:35:45;6.40;;;3.70;;
30635;SDS011;17400;52.392;9.750;2023-05-10T12:38:26;5.95;;;3.78;;
30635;SDS011;17400;52.392;9.750;2023-05-10T12:40:57;6.57;;;3.28;;
30635;SDS011;17400;52.392;9.750;2023-05-10T12:43:26;6.70;;;2.88;;
30635;SDS011;17400;52.392;9.750;2023-05-10T12:45:55;7.10;;;3.28;;
30635;SDS011;17400;52.392;9.750;2023-05-10T12:48:23;6.05;;;3.40;;
30635;SDS011;17400;52.392;9.750;2023-05-10T12:50:51;4.65;;;3.58;;
30635;SDS011;17400;52.392;9.750;2023-05-10T12:53:18;4.28;;;2.58;;
30635;SDS011;17400;52.392;9.750;2023-05-10T12:55:46;3.97;;;2.70;;
30635;SDS011;17400;52.392;9.750;2023-05-10T12:58:14;4.38;;;2.95;;
30635;SDS011;17400;52.392;9.750;2023-05-10T13:01:01;5.55;;;3.08;;
30635;SDS011;17400;52.392;9.750;2023-05-10T13:03:30;6.07;;;3.90;;
30635;SDS011;17400;52.392;9.750;2023-05-10T13:05:58;4.50;;;2.70;;
30635;SDS011;17400;52.392;9.750;2023-05-10T13:08:26;5.97;;;3.25;;
30635;SDS011;17400;52.392;9.750;2023-05-10T13:10:56;7.85;;;3.90;;
30635;SDS011;17400;52.392;9.750;2023-05-10T13:13:23;5.68;;;3.85;;
30635;SDS011;17400;52.392;9.750;2023-05-10T13:15:51;6.10;;;3.13;;
30635;SDS011;17400;52.392;9.750;2023-05-10T13:18:20;5.20;;;3.45;;
30635;SDS011;17400;52.392;9.750;2023-05-10T13:20:48;4.35;;;2.85;;
30635;SDS011;17400;52.392;9.750;2023-05-10T13:23:17;6.75;;;3.42;;
30635;SDS011;17400;52.392;9.750;2023-05-10T13:25:44;7.32;;;4.05;;
30635;SDS011;17400;52.392;9.750;2023-05-10T13:28:13;6.75;;;3.50;;
30635;SDS011;17400;52.392;9.750;2023-05-10T13:30:40;4.15;;;2.70;;
30635;SDS011;17400;52.392;9.750;2023-05-10T13:33:08;8.55;;;4.30;;
30635;SDS011;17400;52.392;9.750;2023-05-10T13:35:37;4.65;;;2.97;;
30635;SDS011;17400;52.392;9.750;2023-05-10T13:38:05;5.03;;;2.92;;
30635;SDS011;17400;52.392;9.750;2023-05-10T13:40:34;3.92;;;2.55;;
30635;SDS011;17400;52.392;9.750;2023-05-10T13:43:02;5.25;;;3.30;;
30635;SDS011;17400;52.392;9.750;2023-05-10T13:45:30;7.03;;;3.90;;
30635;SDS011;17400;52.392;9.750;2023-05-10T13:47:57;5.97;;;3.33;;
30635;SDS011;17400;52.392;9.750;2023-05-10T13:50:26;3.90;;;2.67;;
30635;SDS011;17400;52.392;9.750;2023-05-10T13:52:55;5.63;;;2.95;;
30635;SDS011;17400;52.392;9.750;2023-05-10T13:55:23;4.50;;;3.15;;
30635;SDS011;17400;52.392;9.750;2023-05-10T13:57:51;6.03;;;3.03;;
30635;SDS011;17400;52.392;9.750;2023-05-10T14:00:18;6.22;;;3.70;;
30635;SDS011;17400;52.392;9.750;2023-05-10T14:02:46;6.18;;;3.92;;
30635;SDS011;17400;52.392;9.750;2023-05-10T14:05:14;10.13;;;4.78;;
30635;SDS011;17400;52.392;9.750;2023-05-10T14:07:44;5.90;;;3.90;;
30635;SDS011;17400;52.392;9.750;2023-05-10T14:10:13;8.20;;;4.28;;
30635;SDS011;17400;52.392;9.750;2023-05-10T14:12:41;7.88;;;4.47;;
30635;SDS011;17400;52.392;9.750;2023-05-10T14:15:08;7.88;;;4.05;;
30635;SDS011;17400;52.392;9.750;2023-05-10T14:17:37;11.35;;;4.47;;
30635;SDS011;17400;52.392;9.750;2023-05-10T14:20:06;9.20;;;4.32;;
30635;SDS011;17400;52.392;9.750;2023-05-10T14:22:34;8.57;;;4.50;;
30635;SDS011;17400;52.392;9.750;2023-05-10T14:25:02;8.70;;;5.10;;
30635;SDS011;17400;52.392;9.750;2023-05-10T14:27:32;7.18;;;4.63;;
30635;SDS011;17400;52.392;9.750;2023-05-10T14:30:00;11.00;;;5.70;;
30635;SDS011;17400;52.392;9.750;2023-05-10T14:32:27;9.73;;;6.10;;
30635;SDS011;17400;52.392;9.750;2023-05-10T14:34:55;9.35;;;4.78;;
30635;SDS011;17400;52.392;9.750;2023-05-10T14:37:23;9.43;;;5.50;;
30635;SDS011;17400;52.392;9.750;2023-05-10T14:39:51;9.00;;;5.13;;
30635;SDS011;17400;52.392;9.750;2023-05-10T14:42:18;11.02;;;6.10;;
30635;SDS011;17400;52.392;9.750;2023-05-10T14:44:48;11.05;;;6.20;;
30635;SDS011;17400;52.392;9.750;2023-05-10T14:47:15;11.90;;;5.57;;
30635;SDS011;17400;52.392;9.750;2023-05-10T14:49:43;13.15;;;7.20;;
30635;SDS011;17400;52.392;9.750;2023-05-10T14:52:11;10.18;;;5.88;;
30635;SDS011;17400;52.392;9.750;2023-05-10T14:54:40;10.32;;;5.43;;
30635;SDS011;17400;52.392;9.750;2023-05-10T14:57:08;12.25;;;6.78;;
30635;SDS011;17400;52.392;9.750;2023-05-10T14:59:36;11.35;;;7.15;;
30635;SDS011;17400;52.392;9.750;2023-05-10T15:02:05;10.63;;;5.65;;